Time;durP1;ratioP1;P1;durP2;ratioP2;P2;SDS_P1;SDS_P2;PMS_P1;PMS_P2;Temp;Humidity;BMP_temperature;BMP_pressure;BME280_temperature;BME280_humidity;BME280_pressure;Samples;Min_cycle;Max_cycle;Signal;HPM_P1;HPM_P2
2024/04/07 00:01:13;;;;;;;10.90;2.28;;;;;;;20.52;100.00;100911.06;5282095;28;20470;-72
2024/04/07 00:03:43;;;;;;;7.65;2.20;;;;;;;20.51;100.00;100925.75;5274234;28;20043;-76
2024/04/07 00:06:14;;;;;;;6.38;1.70;;;;;;;20.46;100.00;100931.88;5278238;28;20015;-72
2024/04/07 00:08:46;;;;;;;10.40;2.55;;;;;;;20.44;100.00;100936.72;5276106;28;20021;-72
2024/04/07 00:11:17;;;;;;;12.85;2.60;;;;;;;20.39;100.00;100931.97;5278453;28;20019;-72
2024/04/07 00:13:47;;;;;;;6.32;1.98;;;;;;;20.34;100.00;100939.16;5281244;28;20031;-72
2024/04/07 00:16:19;;;;;;;7.43;2.05;;;;;;;20.33;100.00;100951.97;5273105;28;20030;-76
2024/04/07 00:18:50;;;;;;;13.77;3.13;;;;;;;20.32;100.00;100963.88;5277523;28;20103;-76
2024/04/07 00:21:20;;;;;;;12.38;2.85;;;;;;;20.33;100.00;100943.78;5278599;28;20434;-72
2024/04/07 00:23:51;;;;;;;10.75;2.20;;;;;;;20.33;100.00;100941.06;5278659;28;20016;-74
2024/04/07 00:26:21;;;;;;;7.53;2.38;;;;;;;20.37;100.00;100944.13;5276050;28;20018;-76
2024/04/07 00:28:52;;;;;;;10.38;2.22;;;;;;;20.30;100.00;100941.50;5267836;28;20032;-76
2024/04/07 00:31:22;;;;;;;8.38;2.95;;;;;;;20.33;100.00;100946.50;5275209;28;20042;-74
2024/04/07 00:33:53;;;;;;;8.23;1.88;;;;;;;20.28;100.00;100948.22;5274224;28;20473;-72
2024/04/07 00:36:23;;;;;;;18.92;2.65;;;;;;;20.25;100.00;100959.59;5280950;28;20056;-73
2024/04/07 00:38:54;;;;;;;6.90;1.95;;;;;;;20.18;100.00;100976.84;5275558;28;20027;-75
2024/04/07 00:41:24;;;;;;;7.13;2.22;;;;;;;20.17;100.00;100986.06;5276589;28;20072;-74
2024/04/07 00:43:55;;;;;;;10.77;2.53;;;;;;;20.13;100.00;100979.44;5274766;28;20500;-72
2024/04/07 00:46:27;;;;;;;12.65;3.03;;;;;;;20.11;100.00;100983.41;5278094;28;20045;-73
2024/04/07 00:48:57;;;;;;;11.93;2.35;;;;;;;20.09;100.00;100985.53;5274602;28;20023;-72
2024/04/07 00:51:28;;;;;;;11.40;2.92;;;;;;;20.11;100.00;100995.13;5277854;28;20392;-72
2024/04/07 00:54:00;;;;;;;13.30;2.63;;;;;;;20.09;100.00;101005.44;5275319;28;20024;-75
2024/04/07 00:56:31;;;;;;;8.77;2.38;;;;;;;20.05;100.00;101008.84;5270010;28;20024;-75
2024/04/07 00:59:02;;;;;;;9.93;2.40;;;;;;;20.06;100.00;101014.03;5269267;28;20028;-72
2024/04/07 01:01:33;;;;;;;10.25;2.67;;;;;;;20.03;100.00;101022.69;5277753;28;20176;-73
2024/04/07 01:04:04;;;;;;;13.85;2.35;;;;;;;20.03;100.00;101032.72;5275103;28;20098;-73
2024/04/07 01:06:35;;;;;;;10.93;2.30;;;;;;;20.03;100.00;101038.16;5280557;28;20366;-76
2024/04/07 01:09:07;;;;;;;10.90;1.90;;;;;;;19.99;100.00;101024.19;5276370;28;20030;-72
2024/04/07 01:11:37;;;;;;;11.50;2.47;;;;;;;19.98;100.00;101018.94;5273494;28;20110;-73
2024/04/07 01:14:16;;;;;;;14.98;2.28;;;;;;;19.95;100.00;101036.56;5271591;28;20023;-72
2024/04/07 01:16:50;;;;;;;21.27;3.28;;;;;;;19.97;100.00;101034.44;5270501;28;20020;-74
2024/04/07 01:19:40;;;;;;;9.05;2.50;;;;;;;19.93;100.00;101033.25;5276683;28;20020;-72
2024/04/07 01:22:21;;;;;;;12.45;2.78;;;;;;;19.89;100.00;101051.91;5279033;28;20053;-75
2024/04/07 01:24:51;;;;;;;9.45;2.53;;;;;;;19.87;100.00;101064.91;5272105;28;20148;-73
2024/04/07 01:27:30;;;;;;;11.68;3.25;;;;;;;19.84;100.00;101068.09;5276881;28;20062;-72
2024/04/07 01:30:14;;;;;;;12.60;2.53;;;;;;;19.80;100.00;101083.19;5272219;28;20604;-72
2024/04/07 01:32:44;;;;;;;12.52;2.15;;;;;;;19.82;100.00;101096.56;5277429;28;20073;-72
2024/04/07 01:35:15;;;;;;;8.23;2.50;;;;;;;19.83;100.00;101109.97;5283744;28;20076;-73
2024/04/07 01:37:46;;;;;;;10.45;2.40;;;;;;;19.83;100.00;101112.69;5275296;28;20020;-72
2024/04/07 01:40:17;;;;;;;8.88;2.72;;;;;;;19.82;100.00;101113.72;5281713;28;20023;-71
2024/04/07 01:42:47;;;;;;;10.32;2.15;;;;;;;19.78;100.00;101131.59;5277004;28;20024;-74
2024/04/07 01:45:18;;;;;;;10.80;2.45;;;;;;;19.81;100.00;101133.84;5280519;28;20052;-73
2024/04/07 01:47:49;;;;;;;7.63;2.35;;;;;;;19.80;100.00;101148.53;5278584;28;20029;-71
2024/04/07 01:50:19;;;;;;;11.80;2.38;;;;;;;19.69;100.00;101165.56;5276737;28;20077;-71
2024/04/07 01:52:50;;;;;;;7.45;1.45;;;;;;;19.55;100.00;101153.03;5279986;28;20058;-74
2024/04/07 01:55:20;;;;;;;10.70;1.27;;;;;;;19.61;100.00;101157.63;5275279;28;20423;-74
2024/04/07 01:57:51;;;;;;;2.53;0.82;;;;;;;19.48;100.00;101163.97;5273762;28;20023;-73
2024/04/07 02:00:22;;;;;;;9.13;1.98;;;;;;;19.57;100.00;101184.41;5280879;28;20385;-73
2024/04/07 02:02:52;;;;;;;8.80;1.52;;;;;;;19.52;100.00;101181.50;5280249;28;20031;-72
2024/04/07 02:05:23;;;;;;;1.35;0.60;;;;;;;19.46;100.00;101192.44;5279341;28;20419;-72
2024/04/07 02:07:53;;;;;;;10.95;1.27;;;;;;;19.49;100.00;101200.19;5275855;28;20027;-72
2024/04/07 02:10:24;;;;;;;4.63;0.88;;;;;;;19.46;100.00;101206.03;5272825;28;20377;-76
2024/04/07 02:12:55;;;;;;;6.13;1.13;;;;;;;19.31;100.00;101203.59;5265832;28;20099;-74
2024/04/07 02:15:25;;;;;;;4.53;0.90;;;;;;;19.27;100.00;101192.28;5281388;28;20024;-74
2024/04/07 02:17:57;;;;;;;2.38;0.80;;;;;;;19.08;100.00;101182.34;5274937;28;20481;-74
2024/04/07 02:20:28;;;;;;;0.88;0.55;;;;;;;19.02;100.00;101177.75;5279395;28;20023;-73
2024/04/07 02:22:59;;;;;;;2.97;1.00;;;;;;;18.95;100.00;101179.66;5283729;28;20039;-72
2024/04/07 02:25:32;;;;;;;1.60;0.60;;;;;;;18.95;100.00;101183.22;5279968;28;20392;-74
2024/04/07 02:28:03;;;;;;;1.73;0.65;;;;;;;18.86;100.00;101190.75;5276348;28;20023;-73
2024/04/07 02:30:35;;;;;;;1.75;0.57;;;;;;;18.79;100.00;101214.41;5273082;28;20110;-73
2024/04/07 02:33:08;;;;;;;3.00;0.60;;;;;;;18.71;100.00;101214.63;5278566;28;20564;-74
2024/04/07 02:35:39;;;;;;;3.45;0.65;;;;;;;18.61;100.00;101219.59;5279791;28;20396;-75
2024/04/07 02:38:10;;;;;;;2.45;0.63;;;;;;;18.40;100.00;101212.50;5276966;28;20012;-73
2024/04/07 02:40:42;;;;;;;1.08;0.50;;;;;;;18.24;100.00;101207.50;5275993;28;20024;-73
2024/04/07 02:43:13;;;;;;;1.17;0.57;;;;;;;18.09;100.00;101208.53;5277724;28;20023;-74
2024/04/07 02:48:32;;;;;;;2.33;0.60;;;;;;;18.04;100.00;101219.16;5279097;28;20664;-73
2024/04/07 02:51:03;;;;;;;4.28;0.80;;;;;;;17.96;100.00;101205.78;5276751;28;20032;-72
2024/04/07 02:53:34;;;;;;;4.32;0.75;;;;;;;17.84;100.00;101202.84;5278562;28;20049;-72
2024/04/07 02:56:05;;;;;;;5.47;0.65;;;;;;;17.94;100.00;101196.19;5276427;28;20024;-73
2024/04/07 02:58:36;;;;;;;1.80;0.60;;;;;;;17.92;100.00;101217.25;5270980;28;20274;-74
2024/04/07 03:01:07;;;;;;;3.65;0.70;;;;;;;18.02;100.00;101214.97;5284250;28;20022;-73
2024/04/07 03:03:37;;;;;;;3.50;0.40;;;;;;;18.00;100.00;101227.94;5276847;28;20027;-72
2024/04/07 03:06:09;;;;;;;2.30;0.63;;;;;;;17.99;100.00;101227.09;5283332;28;20492;-72
2024/04/07 03:08:40;;;;;;;0.70;0.40;;;;;;;17.91;100.00;101213.69;5280439;28;20427;-74
2024/04/07 03:11:11;;;;;;;1.45;0.63;;;;;;;17.84;100.00;101186.56;5280587;28;20015;-73
2024/04/07 03:13:41;;;;;;;2.92;0.50;;;;;;;17.90;100.00;101181.34;5280393;28;20495;-72
2024/04/07 03:16:14;;;;;;;1.55;0.40;;;;;;;17.99;100.00;101171.97;5277827;27;20157;-72
2024/04/07 03:18:45;;;;;;;1.75;0.40;;;;;;;17.91;100.00;101169.44;5280134;28;20016;-72
2024/04/07 03:21:15;;;;;;;1.02;0.20;;;;;;;17.79;100.00;101167.34;5280106;28;20027;-72
2024/04/07 03:23:48;;;;;;;0.82;0.40;;;;;;;17.75;100.00;101179.66;5282145;28;20376;-72
2024/04/07 03:26:18;;;;;;;2.35;0.50;;;;;;;17.79;100.00;101167.34;5277846;28;20022;-72
2024/04/07 03:28:49;;;;;;;3.22;0.40;;;;;;;17.80;100.00;101174.44;5270074;28;20035;-73
2024/04/07 03:31:20;;;;;;;2.13;0.63;;;;;;;17.83;100.00;101155.03;5283670;28;20072;-72
2024/04/07 03:33:51;;;;;;;1.15;0.30;;;;;;;17.86;100.00;101151.06;5270908;28;20027;-74
2024/04/07 03:36:21;;;;;;;3.03;0.40;;;;;;;17.78;100.00;101138.53;5283667;27;20020;-72
2024/04/07 03:38:52;;;;;;;1.30;0.55;;;;;;;17.76;100.00;101140.59;5274301;28;20019;-73
2024/04/07 03:41:22;;;;;;;1.25;0.43;;;;;;;17.75;100.00;101128.09;5270564;28;20024;-72
2024/04/07 03:43:53;;;;;;;2.55;0.35;;;;;;;17.82;100.00;101147.09;5280804;28;20019;-72
2024/04/07 03:46:24;;;;;;;2.78;0.60;;;;;;;17.85;100.00;101149.41;5280901;28;20155;-75
2024/04/07 03:48:56;;;;;;;3.65;1.02;;;;;;;17.70;100.00;101157.69;5279039;28;20485;-72
2024/04/07 03:51:27;;;;;;;0.80;0.40;;;;;;;17.78;100.00;101154.81;5278067;28;20018;-72
2024/04/07 03:53:57;;;;;;;2.75;0.50;;;;;;;17.79;100.00;101166.50;5279448;28;20485;-74
2024/04/07 03:56:28;;;;;;;1.00;0.57;;;;;;;17.75;100.00;101170.69;5282207;28;20098;-75
2024/04/07 03:58:58;;;;;;;3.38;0.50;;;;;;;17.74;100.00;101175.28;5271761;28;20063;-72
2024/04/07 04:01:31;;;;;;;2.15;0.75;;;;;;;17.82;100.00;101172.38;5282232;28;20457;-73
2024/04/07 04:04:01;;;;;;;1.50;0.40;;;;;;;17.92;100.00;101184.69;5277264;28;20370;-73
2024/04/07 04:06:32;;;;;;;1.70;0.55;;;;;;;17.84;100.00;101189.28;5274921;28;20020;-72
2024/04/07 04:09:05;;;;;;;0.77;0.40;;;;;;;17.82;100.00;101174.22;5281917;28;20031;-72
2024/04/07 04:11:35;;;;;;;0.93;0.57;;;;;;;17.74;100.00;101175.28;5274216;28;20024;-73
2024/04/07 04:14:06;;;;;;;2.83;0.63;;;;;;;17.76;100.00;101194.03;5281579;28;20020;-73
2024/04/07 04:16:36;;;;;;;5.25;0.77;;;;;;;17.69;100.00;101166.88;5275296;28;20020;-73
2024/04/07 04:19:09;;;;;;;1.50;0.47;;;;;;;17.70;100.00;101187.53;5272466;28;20068;-72
2024/04/07 04:21:41;;;;;;;2.83;0.63;;;;;;;17.56;100.00;101193.97;5279451;28;20499;-72
2024/04/07 04:24:11;;;;;;;2.40;0.65;;;;;;;17.59;100.00;101194.41;5280797;28;20063;-72
2024/04/07 04:26:42;;;;;;;2.03;0.38;;;;;;;17.55;100.00;101203.97;5277101;28;20031;-75
2024/04/07 04:29:13;;;;;;;2.60;0.50;;;;;;;17.45;100.00;101206.22;5271727;27;20032;-72
2024/04/07 04:31:43;;;;;;;3.55;0.55;;;;;;;17.47;100.00;101204.19;5281086;28;20042;-72
2024/04/07 04:34:14;;;;;;;1.13;0.50;;;;;;;17.55;100.00;101203.13;5279276;28;20015;-72
2024/04/07 04:36:47;;;;;;;2.63;0.57;;;;;;;17.46;100.00;101204.34;5278858;28;20043;-72
2024/04/07 04:39:19;;;;;;;6.00;0.55;;;;;;;17.59;100.00;101196.28;5276141;28;20023;-72
2024/04/07 04:41:49;;;;;;;1.52;0.55;;;;;;;17.54;100.00;101196.06;5279488;28;20030;-72
2024/04/07 04:44:20;;;;;;;3.80;0.60;;;;;;;17.53;100.00;101200.66;5272275;28;20016;-72
2024/04/07 04:46:51;;;;;;;3.80;0.82;;;;;;;17.57;100.00;101201.91;5275190;28;20023;-72
2024/04/07 04:49:21;;;;;;;2.63;0.50;;;;;;;17.63;100.00;101208.41;5281017;28;20038;-72
2024/04/07 04:51:54;;;;;;;2.90;0.52;;;;;;;17.56;100.00;101202.09;5276230;28;20385;-72
2024/04/07 04:54:24;;;;;;;3.95;0.55;;;;;;;17.53;100.00;101203.34;5279892;28;20110;-72
2024/04/07 04:56:55;;;;;;;1.67;0.47;;;;;;;17.48;100.00;101219.41;5256672;28;20481;-72
2024/04/07 04:59:25;;;;;;;2.80;0.70;;;;;;;17.46;100.00;101216.03;5273521;28;20076;-72
2024/04/07 05:01:56;;;;;;;3.50;0.75;;;;;;;17.46;100.00;101221.47;5271445;28;20436;-72
2024/04/07 05:04:27;;;;;;;1.70;0.60;;;;;;;17.38;100.00;101220.81;5261502;28;20059;-72
2024/04/07 05:06:58;;;;;;;5.95;0.80;;;;;;;17.40;100.00;101216.03;5271428;28;20430;-72
2024/04/07 05:09:28;;;;;;;2.28;0.73;;;;;;;17.24;100.00;101228.06;5274667;28;20020;-72
2024/04/07 05:11:59;;;;;;;2.58;0.90;;;;;;;17.28;100.00;101232.88;5268879;28;20558;-72
2024/04/07 05:14:29;;;;;;;3.70;0.88;;;;;;;17.28;100.00;101232.03;5274021;28;20059;-72
2024/04/07 05:17:00;;;;;;;2.78;0.70;;;;;;;17.19;100.00;101227.81;5274687;28;20034;-72
2024/04/07 05:19:30;;;;;;;3.15;0.75;;;;;;;17.16;100.00;101223.63;5268144;28;20074;-72
2024/04/07 05:22:01;;;;;;;3.58;0.60;;;;;;;17.18;100.00;101224.28;5280679;28;20022;-72
2024/04/07 05:24:32;;;;;;;2.17;0.57;;;;;;;17.18;100.00;101239.69;5265978;28;20028;-72
2024/04/07 05:27:03;;;;;;;5.75;0.85;;;;;;;17.11;100.00;101233.38;5271282;28;20020;-72
2024/04/07 05:29:34;;;;;;;2.97;0.68;;;;;;;17.10;100.00;101243.41;5271612;28;20378;-72
2024/04/07 05:32:05;;;;;;;3.38;0.63;;;;;;;17.09;100.00;101250.69;5265948;28;20050;-72
2024/04/07 05:34:35;;;;;;;4.03;0.73;;;;;;;17.13;100.00;101245.72;5278166;28;20031;-72
2024/04/07 05:37:06;;;;;;;2.25;0.82;;;;;;;17.12;100.00;101256.75;5270612;28;20020;-72
2024/04/07 05:39:36;;;;;;;5.57;1.00;;;;;;;17.19;100.00;101263.06;5279517;28;20047;-72
2024/04/07 05:42:07;;;;;;;5.07;1.33;;;;;;;17.19;100.00;101252.22;5268727;28;20024;-72
2024/04/07 05:44:39;;;;;;;1.65;0.68;;;;;;;17.13;100.00;101258.44;5276867;28;20023;-72
2024/04/07 05:47:09;;;;;;;3.25;0.82;;;;;;;17.24;100.00;101266.00;5269692;28;20369;-72
2024/04/07 05:49:41;;;;;;;5.07;0.82;;;;;;;17.30;100.00;101271.47;5279625;28;20031;-72
2024/04/07 05:52:12;;;;;;;4.40;0.90;;;;;;;17.33;100.00;101264.81;5270049;28;20020;-73
2024/04/07 05:54:42;;;;;;;1.63;0.70;;;;;;;17.27;100.00;101276.44;5272361;28;20038;-73
2024/04/07 05:57:13;;;;;;;5.10;0.70;;;;;;;17.29;100.00;101282.50;5273123;28;20032;-73
2024/04/07 05:59:46;;;;;;;2.50;0.90;;;;;;;17.23;100.00;101281.44;5269815;28;20024;-73
2024/04/07 06:02:18;;;;;;;5.95;1.48;;;;;;;17.29;100.00;101285.22;5276693;28;20044;-73
2024/04/07 06:04:50;;;;;;;3.65;1.20;;;;;;;17.32;100.00;101276.72;5273379;28;20035;-72
2024/04/07 06:07:21;;;;;;;6.00;1.20;;;;;;;17.27;100.00;101274.59;5271181;28;20100;-72
2024/04/07 06:09:51;;;;;;;3.95;1.33;;;;;;;17.27;100.00;101280.00;5278417;28;20056;-73
2024/04/07 06:12:22;;;;;;;5.15;0.93;;;;;;;17.31;100.00;101275.84;5271532;28;20493;-73
2024/04/07 06:14:53;;;;;;;3.47;1.20;;;;;;;17.44;100.00;101277.78;5277801;28;20389;-72
2024/04/07 06:17:23;;;;;;;6.57;1.27;;;;;;;17.54;100.00;101291.00;5279945;28;20032;-73
2024/04/07 06:19:54;;;;;;;4.35;1.23;;;;;;;17.89;100.00;101297.22;5278972;28;20106;-73
2024/04/07 06:22:26;;;;;;;5.75;1.02;;;;;;;18.28;100.00;101303.81;5281104;28;20490;-74
2024/04/07 06:24:57;;;;;;;4.20;1.55;;;;;;;18.56;100.00;101303.63;5278368;28;20032;-73
2024/04/07 06:27:27;;;;;;;6.57;1.10;;;;;;;18.77;100.00;101295.28;5282332;28;20116;-73
2024/04/07 06:30:00;;;;;;;6.55;1.33;;;;;;;18.81;100.00;101302.00;5268551;28;20024;-73
2024/04/07 06:32:30;;;;;;;3.65;0.98;;;;;;;18.57;100.00;101305.28;5269905;28;20020;-73
2024/04/07 06:35:02;;;;;;;8.25;1.35;;;;;;;18.43;100.00;101311.78;5285397;28;20073;-73
2024/04/07 06:37:33;;;;;;;6.05;1.05;;;;;;;18.30;100.00;101305.28;5277471;27;20338;-73
2024/04/07 06:40:03;;;;;;;4.55;1.10;;;;;;;18.05;100.00;101317.75;5284347;28;20011;-73
2024/04/07 06:42:34;;;;;;;7.13;1.27;;;;;;;17.93;100.00;101309.34;5275431;28;20031;-73
2024/04/07 06:45:04;;;;;;;4.10;1.20;;;;;;;17.76;100.00;101308.03;5281951;28;20023;-73
2024/04/07 06:47:35;;;;;;;4.25;1.25;;;;;;;17.76;100.00;101303.44;5280743;28;20432;-73
2024/04/07 06:50:06;;;;;;;7.55;1.35;;;;;;;17.85;100.00;101312.22;5279955;28;20024;-73
2024/04/07 06:52:36;;;;;;;3.42;0.75;;;;;;;17.82;100.00;101308.06;5281371;28;20059;-73
2024/04/07 06:55:07;;;;;;;4.75;0.80;;;;;;;17.82;100.00;101301.78;5281646;28;20016;-73
2024/04/07 06:57:37;;;;;;;5.10;1.23;;;;;;;17.83;100.00;101326.03;5276315;28;20393;-73
2024/04/07 07:00:09;;;;;;;1.65;1.00;;;;;;;17.80;100.00;101325.56;5282197;28;20016;-73
2024/04/07 07:02:39;;;;;;;3.92;0.95;;;;;;;17.90;100.00;101327.91;5281909;28;20023;-73
2024/04/07 07:05:10;;;;;;;7.80;1.05;;;;;;;18.10;100.00;101331.53;5273479;28;20070;-73
2024/04/07 07:07:40;;;;;;;6.40;1.45;;;;;;;18.63;100.00;101337.09;5276227;28;20028;-73
2024/04/07 07:10:11;;;;;;;7.20;1.45;;;;;;;19.46;100.00;101325.75;5282979;28;20077;-73
2024/04/07 07:12:42;;;;;;;5.55;1.42;;;;;;;20.16;100.00;101332.22;5278205;28;20020;-73
2024/04/07 07:15:12;;;;;;;6.10;0.98;;;;;;;20.60;100.00;101341.41;5278950;28;20022;-74
2024/04/07 07:17:43;;;;;;;2.55;0.85;;;;;;;21.00;100.00;101331.03;5275116;27;20055;-73
2024/04/07 07:20:13;;;;;;;6.40;1.27;;;;;;;21.10;100.00;101346.88;5281023;28;20022;-74
2024/04/07 07:22:44;;;;;;;4.85;1.10;;;;;;;21.49;100.00;101340.25;5282632;28;20036;-73
2024/04/07 07:25:14;;;;;;;5.30;1.27;;;;;;;21.68;100.00;101344.63;5280202;28;20088;-74
2024/04/07 07:27:45;;;;;;;4.20;1.10;;;;;;;21.36;100.00;101354.84;5279157;28;20038;-74
2024/04/07 07:30:16;;;;;;;5.38;1.30;;;;;;;21.18;100.00;101352.03;5271464;28;20020;-74
2024/04/07 07:32:46;;;;;;;5.72;1.30;;;;;;;21.29;100.00;101354.06;5276939;28;20023;-74
2024/04/07 07:35:17;;;;;;;3.17;1.30;;;;;;;21.23;100.00;101360.38;5278549;28;20095;-74
2024/04/07 07:37:47;;;;;;;5.38;1.40;;;;;;;21.49;100.00;101375.72;5273870;28;20024;-74
2024/04/07 07:40:18;;;;;;;5.07;1.20;;;;;;;21.70;100.00;101368.97;5282995;28;20064;-74
2024/04/07 07:42:48;;;;;;;4.88;1.35;;;;;;;20.87;100.00;101355.66;5275092;28;20695;-74
2024/04/07 07:45:20;;;;;;;4.85;1.20;;;;;;;20.94;100.00;101368.22;5280472;28;20028;-74
2024/04/07 07:47:53;;;;;;;6.15;0.93;;;;;;;21.21;100.00;101365.25;5280749;28;20054;-73
2024/04/07 07:50:23;;;;;;;5.82;1.23;;;;;;;21.22;100.00;101369.63;5268526;28;20079;-73
2024/04/07 07:52:54;;;;;;;8.30;1.10;;;;;;;21.35;100.00;101366.81;5280487;28;20094;-73
2024/04/07 07:55:24;;;;;;;7.55;1.20;;;;;;;21.35;100.00;101375.00;5279951;28;20026;-72
2024/04/07 07:57:55;;;;;;;3.90;0.98;;;;;;;21.67;100.00;101377.63;5271113;28;20542;-72
2024/04/07 08:00:25;;;;;;;3.28;0.93;;;;;;;21.34;100.00;101378.81;5276403;28;20069;-73
2024/04/07 08:02:56;;;;;;;6.05;1.45;;;;;;;21.38;100.00;101371.81;5278520;27;20032;-73
2024/04/07 08:05:26;;;;;;;4.53;0.95;;;;;;;21.84;100.00;101381.44;5278169;28;20027;-73
2024/04/07 08:07:57;;;;;;;2.60;0.90;;;;;;;21.68;100.00;101379.28;5265924;28;20031;-72
2024/04/07 08:10:27;;;;;;;4.43;1.10;;;;;;;21.70;100.00;101375.28;5270529;28;20028;-73
2024/04/07 08:12:58;;;;;;;4.95;1.02;;;;;;;21.48;100.00;101384.94;5264655;28;20027;-72
2024/04/07 08:15:28;;;;;;;6.55;1.15;;;;;;;21.56;100.00;101376.47;5272287;28;20354;-72
2024/04/07 08:17:58;;;;;;;4.05;1.10;;;;;;;21.57;100.00;101374.56;5265787;28;20031;-72
2024/04/07 08:20:29;;;;;;;5.63;1.50;;;;;;;22.09;100.00;101389.53;5274189;28;20030;-72
2024/04/07 08:22:59;;;;;;;7.03;1.95;;;;;;;22.28;100.00;101384.88;5276389;28;20036;-73
2024/04/07 08:25:30;;;;;;;8.18;1.35;;;;;;;22.32;100.00;101380.63;5270938;28;20032;-74
2024/04/07 08:28:01;;;;;;;5.07;1.40;;;;;;;21.93;100.00;101379.19;5274962;28;20047;-74
2024/04/07 08:30:33;;;;;;;6.40;1.30;;;;;;;22.23;100.00;101384.75;5275616;27;20077;-73
2024/04/07 08:33:03;;;;;;;3.60;1.10;;;;;;;22.12;100.00;101382.78;5275560;28;20059;-73
2024/04/07 08:35:34;;;;;;;2.95;0.90;;;;;;;22.02;100.00;101385.19;5274840;28;20048;-73
2024/04/07 08:38:04;;;;;;;5.45;1.15;;;;;;;22.17;100.00;101396.59;5275851;28;20035;-73
2024/04/07 08:40:35;;;;;;;2.80;0.77;;;;;;;21.92;100.00;101386.56;5278180;28;20035;-73
2024/04/07 08:43:07;;;;;;;3.97;0.63;;;;;;;22.53;100.00;101403.06;5275948;28;20022;-74
2024/04/07 08:45:40;;;;;;;3.95;1.00;;;;;;;22.72;100.00;101412.88;5274876;28;20481;-73
2024/04/07 08:48:12;;;;;;;5.82;1.02;;;;;;;22.58;100.00;101408.66;5271098;28;20081;-73
2024/04/07 08:50:45;;;;;;;2.80;0.80;;;;;;;22.84;100.00;101408.28;5260954;28;20089;-73
2024/04/07 08:53:17;;;;;;;2.40;0.90;;;;;;;23.34;100.00;101405.16;5262206;28;20016;-73
2024/04/07 08:55:48;;;;;;;4.85;0.90;;;;;;;23.71;100.00;101411.25;5266714;28;20052;-73
2024/04/07 08:58:19;;;;;;;2.83;0.80;;;;;;;23.64;100.00;101401.50;5269565;28;20469;-74
2024/04/07 09:00:52;;;;;;;5.00;0.98;;;;;;;23.77;100.00;101404.81;5271497;28;20024;-74
2024/04/07 09:03:23;;;;;;;2.70;0.77;;;;;;;23.72;100.00;101401.97;5267726;28;20401;-74
2024/04/07 09:05:54;;;;;;;4.18;0.95;;;;;;;23.57;100.00;101407.06;5274244;28;20027;-74
2024/04/07 09:08:24;;;;;;;6.07;0.90;;;;;;;23.60;100.00;101408.50;5265939;28;20060;-74
2024/04/07 09:10:55;;;;;;;2.67;0.88;;;;;;;22.93;100.00;101403.31;5278667;28;20515;-73
2024/04/07 09:13:25;;;;;;;3.28;0.90;;;;;;;22.94;100.00;101408.56;5270762;28;20118;-74
2024/04/07 09:15:57;;;;;;;5.05;1.30;;;;;;;23.19;100.00;101408.38;5278421;28;20019;-73
2024/04/07 09:18:27;;;;;;;7.07;1.23;;;;;;;23.58;100.00;101407.91;5275236;28;20168;-73
2024/04/07 09:20:58;;;;;;;5.55;1.20;;;;;;;23.18;100.00;101411.34;5269009;28;20536;-73
2024/04/07 09:23:28;;;;;;;5.10;1.20;;;;;;;22.82;100.00;101406.84;5275375;28;20028;-73
2024/04/07 09:25:59;;;;;;;4.50;0.93;;;;;;;23.17;100.00;101409.66;5275161;28;20028;-73
2024/04/07 09:28:29;;;;;;;2.50;0.70;;;;;;;23.12;100.00;101406.81;5278660;28;20169;-73
2024/04/07 09:31:01;;;;;;;3.80;1.20;;;;;;;23.24;100.00;101416.72;5280079;28;20032;-73
2024/04/07 09:33:34;;;;;;;5.35;1.02;;;;;;;23.08;100.00;101416.56;5277226;28;20072;-73
2024/04/07 09:36:05;;;;;;;2.83;0.80;;;;;;;23.21;100.00;101408.97;5273294;28;20501;-74
2024/04/07 09:38:35;;;;;;;4.07;0.90;;;;;;;23.00;100.00;101402.16;5275061;28;20020;-74
2024/04/07 09:41:09;;;;;;;3.70;1.08;;;;;;;22.84;100.00;101399.22;5268425;28;20027;-74
2024/04/07 09:43:41;;;;;;;0.75;0.60;;;;;;;22.88;100.00;101405.91;5280185;28;20028;-74
2024/04/07 09:46:19;;;;;;;5.93;1.00;;;;;;;22.68;100.00;101409.75;5268421;28;20047;-74
2024/04/07 09:48:51;;;;;;;3.30;0.70;;;;;;;22.59;100.00;101413.06;5261983;28;20652;-74
2024/04/07 09:51:21;;;;;;;2.30;0.90;;;;;;;22.75;100.00;101423.34;5280836;28;20434;-74
2024/04/07 09:54:02;;;;;;;4.90;0.90;;;;;;;23.06;100.00;101421.44;5271879;28;20024;-76
2024/04/07 09:56:34;;;;;;;1.88;1.00;;;;;;;23.60;100.00;101422.19;5280876;28;20023;-76
2024/04/07 09:59:06;;;;;;;3.05;0.80;;;;;;;23.97;100.00;101411.81;5268690;28;20012;-73
2024/04/07 10:01:37;;;;;;;3.88;0.80;;;;;;;23.97;100.00;101411.81;5280063;28;20152;-73
2024/04/07 10:04:09;;;;;;;3.10;0.88;;;;;;;23.80;100.00;101416.34;5270252;28;20026;-73
2024/04/07 10:06:40;;;;;;;4.40;0.98;;;;;;;23.86;100.00;101412.69;5276395;28;20170;-73
2024/04/07 10:09:11;;;;;;;1.08;0.80;;;;;;;23.48;100.00;101419.44;5275342;28;20663;-73
2024/04/07 10:11:48;;;;;;;5.00;0.80;;;;;;;22.90;100.00;101412.84;5269232;28;20051;-76
2024/04/07 10:14:19;;;;;;;1.83;0.60;;;;;;;23.04;100.00;101410.72;5277494;28;20032;-73
2024/04/07 10:16:51;;;;;;;4.10;0.90;;;;;;;23.43;100.00;101406.47;5275570;28;20359;-75
2024/04/07 10:19:27;;;;;;;3.90;1.00;;;;;;;23.13;100.00;101400.25;5265815;28;20372;-75
2024/04/07 10:21:57;;;;;;;5.70;0.60;;;;;;;22.93;100.00;101403.31;5277362;28;20020;-73
2024/04/07 10:24:28;;;;;;;3.45;0.90;;;;;;;22.95;100.00;101402.03;5272227;28;20538;-73
2024/04/07 10:26:59;;;;;;;3.38;0.85;;;;;;;22.83;100.00;101405.75;5277199;28;20537;-73
2024/04/07 10:29:30;;;;;;;1.48;0.60;;;;;;;22.36;100.00;101403.72;5269496;28;20512;-74
2024/04/07 10:32:02;;;;;;;3.05;0.60;;;;;;;22.42;100.00;101401.94;5276370;28;20039;-74
2024/04/07 10:34:34;;;;;;;6.03;0.85;;;;;;;22.43;100.00;101393.50;5281915;28;20062;-75
2024/04/07 10:37:04;;;;;;;3.90;0.60;;;;;;;22.46;100.00;101389.50;5276398;28;20051;-75
2024/04/07 10:39:35;;;;;;;3.60;0.75;;;;;;;22.65;100.00;101398.47;5269055;28;20393;-75
2024/04/07 10:42:06;;;;;;;5.60;0.68;;;;;;;22.58;100.00;101387.63;5276170;28;20031;-76
2024/04/07 10:44:37;;;;;;;2.75;0.70;;;;;;;22.58;100.00;101389.53;5268938;28;20032;-75
2024/04/07 10:47:08;;;;;;;1.40;0.63;;;;;;;22.62;100.00;101393.47;5275387;28;20149;-74
2024/04/07 10:49:39;;;;;;;1.48;0.65;;;;;;;22.57;100.00;101394.16;5272462;28;20074;-75
2024/04/07 10:52:14;;;;;;;2.15;0.60;;;;;;;22.52;100.00;101394.03;5275429;28;20113;-77
2024/04/07 10:54:45;;;;;;;1.27;0.63;;;;;;;22.51;100.00;101416.13;5272260;28;20107;-75
2024/04/07 10:57:16;;;;;;;4.07;0.70;;;;;;;22.35;100.00;101402.03;5272290;28;20020;-75
2024/04/07 10:59:46;;;;;;;6.70;0.88;;;;;;;22.69;100.00;101394.19;5269219;28;20020;-75
2024/04/07 11:02:17;;;;;;;2.70;0.60;;;;;;;22.62;100.00;101379.78;5268135;28;20012;-75
2024/04/07 11:04:49;;;;;;;0.90;0.40;;;;;;;22.85;100.00;101371.66;5275728;28;20050;-75
2024/04/07 11:07:19;;;;;;;1.17;0.50;;;;;;;23.19;100.00;101380.16;5271471;27;20028;-75
2024/04/07 11:09:50;;;;;;;2.63;0.50;;;;;;;23.45;100.00;101398.03;5277487;28;20028;-75
2024/04/07 11:12:25;;;;;;;3.30;0.82;;;;;;;23.47;100.00;101383.03;5273964;28;20035;-75
2024/04/07 11:14:57;;;;;;;2.53;0.60;;;;;;;23.41;100.00;101385.88;5268273;28;20024;-75
2024/04/07 11:17:28;;;;;;;3.30;0.40;;;;;;;23.15;100.00;101379.81;5270930;28;20058;-75
2024/04/07 11:19:58;;;;;;;4.63;0.75;;;;;;;23.40;100.00;101371.38;5277620;28;20051;-75
2024/04/07 11:22:29;;;;;;;3.75;0.77;;;;;;;23.52;100.00;101369.44;5268332;28;20081;-75
2024/04/07 11:24:59;;;;;;;3.75;0.52;;;;;;;23.52;100.00;101382.31;5270386;28;20473;-75
2024/04/07 11:27:30;;;;;;;4.72;0.88;;;;;;;23.52;100.00;101394.09;5272716;28;20715;-75
2024/04/07 11:30:01;;;;;;;1.80;0.30;;;;;;;23.31;100.00;101399.34;5274444;28;20115;-75
2024/04/07 11:32:36;;;;;;;2.30;0.70;;;;;;;23.56;100.00;101388.16;5273495;28;20022;-75
2024/04/07 11:35:07;;;;;;;3.28;0.77;;;;;;;23.68;100.00;101386.25;5276637;28;20039;-75
2024/04/07 11:37:39;;;;;;;2.78;0.60;;;;;;;23.57;100.00;101385.16;5273706;28;20037;-75